Time;durP1;ratioP1;P1;durP2;ratioP2;P2;SDS_P1;SDS_P2;PMS_P1;PMS_P2;Temp;Humidity;BMP_temperature;BMP_pressure;BME280_temperature;BME280_humidity;BME280_pressure;Samples;Min_cycle;Max_cycle;Signal;HPM_P1;HPM_P2
2023/04/26 00:01:47;;;;;;;;;;;;;;;3.59;79.13;101857.31;5021252;28;1902;-77
2023/04/26 00:04:13;;;;;;;;;;;;;;;3.64;79.66;101860.56;5037757;28;1289;-76
2023/04/26 00:06:38;;;;;;;;;;;;;;;3.61;79.54;101858.13;5035576;28;1258;-77
2023/04/26 00:09:04;;;;;;;;;;;;;;;3.60;79.43;101856.41;5036595;28;1193;-77
2023/04/26 00:11:29;;;;;;;;;;;;;;;3.58;79.77;101860.78;5043787;28;1321;-76
2023/04/26 00:13:54;;;;;;;;;;;;;;;3.57;80.46;101859.09;5033404;28;1158;-76
2023/04/26 00:16:19;;;;;;;;;;;;;;;3.53;80.31;101857.53;5038873;28;1344;-77
2023/04/26 00:18:45;;;;;;;;;;;;;;;3.51;79.51;101864.47;5039235;28;1292;-77
2023/04/26 00:21:10;;;;;;;;;;;;;;;3.50;79.90;101867.91;5032851;28;1443;-76
2023/04/26 00:23:35;;;;;;;;;;;;;;;3.53;80.26;101861.81;5039953;28;1890;-77
2023/04/26 00:26:01;;;;;;;;;;;;;;;3.55;79.84;101866.00;5036074;28;1245;-76
2023/04/26 00:28:27;;;;;;;;;;;;;;;3.54;79.73;101864.31;5040909;28;1169;-76
2023/04/26 00:30:52;;;;;;;;;;;;;;;3.53;79.62;101867.78;5038978;28;1153;-76
2023/04/26 00:33:18;;;;;;;;;;;;;;;3.52;79.29;101866.13;5036261;28;1150;-78
2023/04/26 00:35:43;;;;;;;;;;;;;;;3.50;79.61;101862.78;5036439;28;1329;-77
2023/04/26 00:38:08;;;;;;;;;;;;;;;3.47;79.51;101861.16;5039733;28;1086;-77
2023/04/26 00:40:34;;;;;;;;;;;;;;;3.45;79.68;101869.81;5015199;28;1252;-77
2023/04/26 00:42:59;;;;;;;;;;;;;;;3.42;79.37;101869.91;5045379;28;1961;-76
2023/04/26 00:45:25;;;;;;;;;;;;;;;3.38;79.99;101873.44;5025469;28;1480;-77
2023/04/26 00:47:50;;;;;;;;;;;;;;;3.31;79.98;101877.13;5026259;28;1232;-77
2023/04/26 00:50:15;;;;;;;;;;;;;;;3.26;80.22;101879.84;5046320;28;1146;-77
2023/04/26 00:52:40;;;;;;;;;;;;;;;3.16;80.00;101869.06;5027630;28;1216;-77
2023/04/26 00:55:06;;;;;;;;;;;;;;;3.09;79.76;101872.72;5029125;28;987;-76
2023/04/26 00:57:32;;;;;;;;;;;;;;;3.02;80.51;101858.44;5033658;28;1377;-76
2023/04/26 00:59:57;;;;;;;;;;;;;;;2.96;80.14;101861.22;5042320;28;1104;-76
2023/04/26 01:02:22;;;;;;;;;;;;;;;2.93;80.22;101866.44;5039218;28;1890;-76
2023/04/26 01:04:48;;;;;;;;;;;;;;;2.90;80.11;101866.53;5033968;28;2001;-77
2023/04/26 01:07:13;;;;;;;;;;;;;;;2.84;80.81;101862.44;5039613;28;1046;-76
2023/04/26 01:09:39;;;;;;;;;;;;;;;2.82;80.65;101848.88;5035277;28;1402;-77
2023/04/26 01:12:05;;;;;;;;;;;;;;;2.86;80.52;101854.72;5018625;28;1175;-77
2023/04/26 01:14:30;;;;;;;;;;;;;;;2.89;80.91;101857.19;5018091;28;1328;-76
2023/04/26 01:16:56;;;;;;;;;;;;;;;2.90;81.88;101863.97;5036574;28;1115;-77
2023/04/26 01:19:22;;;;;;;;;;;;;;;2.88;82.02;101865.75;5034943;28;1252;-76
2023/04/26 01:21:47;;;;;;;;;;;;;;;2.87;81.87;101861.53;5033914;28;1890;-77
2023/04/26 01:24:12;;;;;;;;;;;;;;;2.82;81.63;101865.97;5027297;28;1323;-76
2023/04/26 01:26:44;;;;;;;;;;;;;;;2.78;82.15;101867.78;5035040;28;1264;-76
2023/04/26 01:29:19;;;;;;;;;;;;;;;2.74;82.06;101870.47;5040514;28;1224;-77
2023/04/26 01:31:45;;;;;;;;;;;;;;;2.70;82.29;101866.38;5025287;28;1224;-77
2023/04/26 01:34:10;;;;;;;;;;;;;;;2.67;82.61;101865.56;5015838;28;1412;-77
2023/04/26 01:36:35;;;;;;;;;;;;;;;2.69;82.87;101872.34;5023527;28;1224;-76
2023/04/26 01:39:01;;;;;;;;;;;;;;;2.65;82.73;101876.75;5040373;28;1098;-76
2023/04/26 01:41:26;;;;;;;;;;;;;;;2.59;83.33;101862.41;5021634;28;1985;-77
2023/04/26 01:43:52;;;;;;;;;;;;;;;2.59;82.61;101877.78;5024958;28;1195;-76
2023/04/26 01:46:17;;;;;;;;;;;;;;;2.57;83.80;101871.84;5023418;28;1344;-76
2023/04/26 01:48:42;;;;;;;;;;;;;;;2.58;83.44;101868.44;5040334;28;1158;-76
2023/04/26 01:51:08;;;;;;;;;;;;;;;2.58;83.13;101860.75;5034079;28;1126;-76
2023/04/26 01:53:33;;;;;;;;;;;;;;;2.57;83.38;101871.84;5031565;28;1102;-76
2023/04/26 01:56:03;;;;;;;;;;;;;;;2.55;83.32;101860.81;5039817;28;1241;-77
2023/04/26 01:58:28;;;;;;;;;;;;;;;2.52;83.56;101860.91;5046738;28;1580;-76
2023/04/26 02:00:53;;;;;;;;;;;;;;;2.52;82.86;101858.34;5041078;28;1419;-76
2023/04/26 02:03:18;;;;;;;;;;;;;;;2.56;83.12;101862.50;5043551;28;1918;-77
2023/04/26 02:05:44;;;;;;;;;;;;;;;2.60;83.06;101858.13;5039288;28;1613;-76
2023/04/26 02:08:09;;;;;;;;;;;;;;;2.63;83.55;101863.97;5042338;28;2229;-77
2023/04/26 02:10:34;;;;;;;;;;;;;;;2.64;83.67;101860.53;5047627;28;1134;-76
2023/04/26 02:13:00;;;;;;;;;;;;;;;2.62;83.11;101862.31;5043994;28;1185;-76
2023/04/26 02:15:25;;;;;;;;;;;;;;;2.63;83.61;101863.13;5040163;28;1147;-77
2023/04/26 02:17:52;;;;;;;;;;;;;;;2.55;83.85;101865.94;5021788;28;1326;-76
2023/04/26 02:20:17;;;;;;;;;;;;;;;2.48;83.41;101864.47;5041305;28;1183;-77
2023/04/26 02:22:42;;;;;;;;;;;;;;;2.44;84.39;101868.00;5038166;28;1902;-76
2023/04/26 02:25:08;;;;;;;;;;;;;;;2.42;83.70;101863.81;5030374;28;1377;-76
2023/04/26 02:27:33;;;;;;;;;;;;;;;2.39;84.58;101860.47;5048065;28;1294;-76
2023/04/26 02:29:58;;;;;;;;;;;;;;;2.38;83.95;101863.06;5038296;28;1169;-76
2023/04/26 02:32:23;;;;;;;;;;;;;;;2.37;84.68;101863.97;5042666;28;1117;-76
2023/04/26 02:34:49;;;;;;;;;;;;;;;2.35;84.43;101858.03;5024278;28;1212;-76
2023/04/26 02:37:14;;;;;;;;;;;;;;;2.31;84.68;101869.28;5043461;28;1194;-77
2023/04/26 02:39:39;;;;;;;;;;;;;;;2.25;84.48;101861.78;5038808;28;1455;-77
2023/04/26 02:42:11;;;;;;;;;;;;;;;2.24;84.30;101860.13;5037774;28;1993;-76
2023/04/26 02:44:38;;;;;;;;;;;;;;;2.26;84.80;101858.34;5042269;28;1365;-76
2023/04/26 02:47:03;;;;;;;;;;;;;;;2.22;84.36;101865.25;5048267;28;1162;-76
2023/04/26 02:49:29;;;;;;;;;;;;;;;2.20;85.11;101855.97;5044430;28;1407;-76
2023/04/26 02:51:55;;;;;;;;;;;;;;;2.13;85.04;101856.16;5040299;28;1044;-77
2023/04/26 02:54:20;;;;;;;;;;;;;;;2.10;84.55;101863.91;5023724;28;1459;-76
2023/04/26 02:56:45;;;;;;;;;;;;;;;2.05;84.91;101855.53;5023343;28;1547;-76
2023/04/26 02:59:10;;;;;;;;;;;;;;;2.03;84.97;101852.19;5029175;28;1196;-77
2023/04/26 03:01:36;;;;;;;;;;;;;;;2.00;85.26;101852.25;5039623;28;1894;-76
2023/04/26 03:04:01;;;;;;;;;;;;;;;1.99;84.95;101850.59;5023204;28;1260;-77
2023/04/26 03:06:27;;;;;;;;;;;;;;;1.98;84.64;101848.91;5025782;28;1199;-77
2023/04/26 03:08:52;;;;;;;;;;;;;;;2.02;85.42;101845.41;5040373;28;1165;-76
2023/04/26 03:11:17;;;;;;;;;;;;;;;2.03;85.04;101839.38;5041573;28;1170;-77
2023/04/26 03:13:43;;;;;;;;;;;;;;;2.06;85.24;101841.84;5035310;28;1184;-77
2023/04/26 03:16:08;;;;;;;;;;;;;;;2.04;85.60;101846.19;5023287;28;1343;-76
2023/04/26 03:18:33;;;;;;;;;;;;;;;2.00;85.63;101852.25;5036449;28;1243;-77
2023/04/26 03:20:58;;;;;;;;;;;;;;;1.97;85.75;101847.25;5044165;28;1326;-76
2023/04/26 03:23:24;;;;;;;;;;;;;;;1.98;86.09;101854.03;5026074;28;1961;-76
2023/04/26 03:25:50;;;;;;;;;;;;;;;1.97;85.63;101847.25;5041289;28;1307;-78
2023/04/26 03:28:15;;;;;;;;;;;;;;;1.96;86.30;101849.84;5039276;28;1266;-78
2023/04/26 03:30:40;;;;;;;;;;;;;;;1.95;86.40;101843.03;5047359;28;1041;-77
2023/04/26 03:33:06;;;;;;;;;;;;;;;1.92;85.61;101838.88;5047600;28;1050;-77
2023/04/26 03:35:31;;;;;;;;;;;;;;;1.90;86.31;101835.53;5045811;28;1341;-77
2023/04/26 03:37:56;;;;;;;;;;;;;;;1.84;85.88;101845.94;5035941;28;1196;-78
2023/04/26 03:40:21;;;;;;;;;;;;;;;1.81;86.62;101846.84;5043860;28;1169;-77
2023/04/26 03:42:46;;;;;;;;;;;;;;;1.81;86.49;101841.72;5045323;28;1917;-76
2023/04/26 03:45:11;;;;;;;;;;;;;;;1.79;86.03;101835.84;5042464;28;1229;-77
2023/04/26 03:47:37;;;;;;;;;;;;;;;1.77;86.51;101836.75;5025768;28;1233;-77
2023/04/26 03:50:02;;;;;;;;;;;;;;;1.76;85.77;101840.19;5021939;28;1541;-76
2023/04/26 03:52:27;;;;;;;;;;;;;;;1.74;85.82;101835.13;5051853;28;1279;-76
2023/04/26 03:54:52;;;;;;;;;;;;;;;1.72;85.78;101830.91;5045286;28;1142;-77
2023/04/26 03:57:18;;;;;;;;;;;;;;;1.74;86.33;101839.41;5039456;28;1316;-76
2023/04/26 03:59:43;;;;;;;;;;;;;;;1.78;85.95;101838.44;5042788;28;1342;-77
2023/04/26 04:02:08;;;;;;;;;;;;;;;1.82;86.42;101843.41;5046436;28;1957;-76
2023/04/26 04:04:33;;;;;;;;;;;;;;;1.86;86.48;101839.88;5041283;28;1181;-77
2023/04/26 04:06:58;;;;;;;;;;;;;;;1.91;85.98;101836.34;5028384;28;1155;-77
2023/04/26 04:09:24;;;;;;;;;;;;;;;1.93;86.57;101845.66;5017375;28;1199;-76
2023/04/26 04:11:49;;;;;;;;;;;;;;;1.94;85.97;101837.09;5021212;28;1230;-77
2023/04/26 04:14:14;;;;;;;;;;;;;;;1.97;86.38;101836.19;5040966;28;1450;-76
2023/04/26 04:16:39;;;;;;;;;;;;;;;1.97;86.46;101828.50;5028373;28;1502;-77
2023/04/26 04:19:05;;;;;;;;;;;;;;;1.97;86.51;101837.00;5021099;28;1498;-77
2023/04/26 04:21:30;;;;;;;;;;;;;;;1.97;86.45;101837.00;5041053;28;1975;-76
2023/04/26 04:23:56;;;;;;;;;;;;;;;1.92;86.54;101838.88;5018036;28;1496;-76
2023/04/26 04:26:21;;;;;;;;;;;;;;;1.85;86.35;101830.53;5046348;28;1336;-76
2023/04/26 04:28:47;;;;;;;;;;;;;;;1.82;86.67;101832.34;5021901;28;1356;-76
2023/04/26 04:31:12;;;;;;;;;;;;;;;1.80;86.66;101836.66;5016535;28;1217;-77
2023/04/26 04:33:38;;;;;;;;;;;;;;;1.78;86.79;101839.28;5034537;28;1214;-76
2023/04/26 04:36:03;;;;;;;;;;;;;;;1.79;86.86;101842.66;5045393;28;1432;-76
2023/04/26 04:38:29;;;;;;;;;;;;;;;1.80;86.78;101845.19;5043821;28;1103;-77
2023/04/26 04:40:55;;;;;;;;;;;;;;;1.83;87.31;101849.34;5027837;28;1408;-76
2023/04/26 04:43:22;;;;;;;;;;;;;;;1.85;87.01;101851.00;5044214;28;1965;-77
2023/04/26 04:45:48;;;;;;;;;;;;;;;1.86;87.27;101849.28;5044107;28;1050;-76
2023/04/26 04:48:13;;;;;;;;;;;;;;;1.83;87.10;101849.34;5044966;28;1117;-78
2023/04/26 04:50:38;;;;;;;;;;;;;;;1.81;86.95;101841.72;5037028;28;1072;-77
2023/04/26 04:53:03;;;;;;;;;;;;;;;1.80;87.01;101852.00;5026736;28;1466;-76
2023/04/26 04:55:29;;;;;;;;;;;;;;;1.79;87.71;101847.78;5040267;28;1137;-77
2023/04/26 04:57:54;;;;;;;;;;;;;;;1.82;87.92;101847.69;5042515;28;1227;-77
2023/04/26 05:00:20;;;;;;;;;;;;;;;1.84;88.03;101856.16;5043833;28;1361;-76
2023/04/26 05:02:45;;;;;;;;;;;;;;;1.86;87.67;101854.38;5042083;28;1882;-76
2023/04/26 05:05:10;;;;;;;;;;;;;;;1.90;88.40;101861.09;5043453;28;1267;-76
2023/04/26 05:07:36;;;;;;;;;;;;;;;1.95;87.96;101856.69;5045183;28;1072;-76
2023/04/26 05:10:01;;;;;;;;;;;;;;;1.98;87.97;101856.59;5040738;28;1046;-78
2023/04/26 05:12:26;;;;;;;;;;;;;;;2.04;87.77;101853.84;5039480;28;1153;-78
2023/04/26 05:14:52;;;;;;;;;;;;;;;2.07;88.24;101864.00;5039433;28;1142;-76
2023/04/26 05:17:17;;;;;;;;;;;;;;;2.09;88.06;101867.34;5022058;28;1470;-78
2023/04/26 05:19:42;;;;;;;;;;;;;;;2.10;87.85;101863.91;5042494;28;1109;-75
2023/04/26 05:22:07;;;;;;;;;;;;;;;2.12;88.17;101862.16;5030707;28;1905;-76
2023/04/26 05:24:33;;;;;;;;;;;;;;;2.16;88.55;101864.59;5043924;28;1164;-76
2023/04/26 05:26:58;;;;;;;;;;;;;;;2.18;88.81;101866.25;5043737;28;1685;-76
2023/04/26 05:29:27;;;;;;;;;;;;;;;2.21;88.92;101865.31;5041605;28;1145;-76
2023/04/26 05:31:53;;;;;;;;;;;;;;;2.27;88.65;101870.25;5044570;28;1230;-76
2023/04/26 05:34:18;;;;;;;;;;;;;;;2.33;88.72;101870.06;5022327;28;1208;-76
2023/04/26 05:36:43;;;;;;;;;;;;;;;2.38;88.27;101870.75;5047894;28;1247;-77
2023/04/26 05:39:08;;;;;;;;;;;;;;;2.43;89.15;101875.75;5048603;28;1129;-77
2023/04/26 05:41:34;;;;;;;;;;;;;;;2.51;89.02;101869.47;5049859;28;1918;-77
2023/04/26 05:43:59;;;;;;;;;;;;;;;2.56;88.63;101872.75;5045495;28;1254;-77
2023/04/26 05:46:24;;;;;;;;;;;;;;;2.60;88.87;101869.22;5044803;28;1120;-77
2023/04/26 05:48:50;;;;;;;;;;;;;;;2.66;88.48;101879.25;5046616;28;1292;-77
2023/04/26 05:51:15;;;;;;;;;;;;;;;2.71;88.61;101885.97;5042013;28;1149;-77
2023/04/26 05:53:40;;;;;;;;;;;;;;;2.77;88.58;101883.19;5031315;28;1265;-77
2023/04/26 05:56:06;;;;;;;;;;;;;;;2.81;89.00;101883.06;5046967;28;1317;-78
2023/04/26 05:58:32;;;;;;;;;;;;;;;2.89;88.78;101885.38;5031221;28;1308;-77
2023/04/26 06:00:57;;;;;;;;;;;;;;;2.95;89.49;101879.22;5027165;28;1315;-78
2023/04/26 06:03:23;;;;;;;;;;;;;;;3.00;89.69;101883.28;5026689;28;1965;-77
2023/04/26 06:05:48;;;;;;;;;;;;;;;3.06;89.51;101883.09;5026891;28;1202;-77
2023/04/26 06:08:13;;;;;;;;;;;;;;;3.14;89.32;101881.09;5048972;28;1162;-77
2023/04/26 06:10:39;;;;;;;;;;;;;;;3.24;89.43;101884.19;5044022;28;1150;-77
2023/04/26 06:13:04;;;;;;;;;;;;;;;3.31;89.85;101882.25;5029562;28;1288;-78
2023/04/26 06:15:30;;;;;;;;;;;;;;;3.37;89.50;101876.91;5049485;28;1157;-78
2023/04/26 06:17:55;;;;;;;;;;;;;;;3.43;89.68;101881.81;5039434;28;1147;-77
2023/04/26 06:20:21;;;;;;;;;;;;;;;3.48;89.47;101885.06;5033657;28;1149;-77
2023/04/26 06:22:46;;;;;;;;;;;;;;;3.52;89.63;101889.22;5044868;28;1890;-77
2023/04/26 06:25:11;;;;;;;;;;;;;;;3.58;89.34;101878.72;5042781;28;1291;-77
2023/04/26 06:27:38;;;;;;;;;;;;;;;3.66;89.38;101893.84;5037131;28;1286;-78
2023/04/26 06:30:03;;;;;;;;;;;;;;;3.72;89.65;101889.31;5019535;28;1201;-78
2023/04/26 06:32:29;;;;;;;;;;;;;;;3.81;89.20;101882.19;5046746;28;1231;-78
2023/04/26 06:34:54;;;;;;;;;;;;;;;3.91;89.53;101888.69;5047245;28;1208;-78
2023/04/26 06:37:20;;;;;;;;;;;;;;;4.00;89.50;101893.44;5025132;28;1201;-78
2023/04/26 06:39:45;;;;;;;;;;;;;;;4.10;89.56;101884.53;5038993;28;1109;-79
2023/04/26 06:42:10;;;;;;;;;;;;;;;4.20;89.21;101896.13;5019700;28;1965;-79
2023/04/26 06:44:35;;;;;;;;;;;;;;;4.31;90.12;101902.59;5035926;28;1440;-78
2023/04/26 06:47:00;;;;;;;;;;;;;;;4.40;89.71;101895.34;5044579;28;1258;-79
2023/04/26 06:49:26;;;;;;;;;;;;;;;4.49;89.44;101902.72;5040199;28;1209;-78
2023/04/26 06:51:51;;;;;;;;;;;;;;;4.56;89.36;101903.31;5044309;28;1142;-78
2023/04/26 06:54:17;;;;;;;;;;;;;;;4.64;89.37;101908.97;5048178;28;1458;-79
2023/04/26 06:56:42;;;;;;;;;;;;;;;4.73;90.05;101906.03;5038259;28;1438;-78
2023/04/26 06:59:07;;;;;;;;;;;;;;;4.82;89.48;101899.72;5035167;28;1152;-79
2023/04/26 07:01:33;;;;;;;;;;;;;;;4.90;89.34;101909.69;5042501;28;1894;-79
2023/04/26 07:04:02;;;;;;;;;;;;;;;4.98;88.86;101910.19;5039693;28;1304;-78
2023/04/26 07:06:28;;;;;;;;;;;;;;;5.05;89.20;101916.78;5043638;28;1176;-78
2023/04/26 07:08:53;;;;;;;;;;;;;;;5.11;88.95;101910.56;5029174;28;1490;-79
2023/04/26 07:11:18;;;;;;;;;;;;;;;5.16;88.89;101919.75;5025725;28;1322;-78
2023/04/26 07:13:43;;;;;;;;;;;;;;;5.22;88.52;101909.19;5042088;28;1430;-79
2023/04/26 07:16:08;;;;;;;;;;;;;;;5.27;88.16;101916.69;5027189;28;1456;-79
2023/04/26 07:18:34;;;;;;;;;;;;;;;5.32;88.96;101909.63;5031987;28;1311;-79
2023/04/26 07:20:59;;;;;;;;;;;;;;;5.39;88.54;101910.19;5043356;28;1504;-79
2023/04/26 07:23:24;;;;;;;;;;;;;;;5.45;88.66;101904.78;5023582;28;1898;-79
2023/04/26 07:25:49;;;;;;;;;;;;;;;5.50;87.49;101906.28;5027694;28;1287;-79
2023/04/26 07:28:15;;;;;;;;;;;;;;;5.55;87.63;101911.22;5037139;28;1360;-78
2023/04/26 07:30:40;;;;;;;;;;;;;;;5.61;87.32;101910.94;5039176;28;1407;-79
2023/04/26 07:33:05;;;;;;;;;;;;;;;5.66;87.29;101908.19;5044807;28;1337;-78
2023/04/26 07:35:33;;;;;;;;;;;;;;;5.73;87.13;101905.28;5041890;28;1416;-78
2023/04/26 07:37:58;;;;;;;;;;;;;;;5.77;86.75;101896.50;5039060;28;1159;-79
2023/04/26 07:40:25;;;;;;;;;;;;;;;5.82;87.50;101899.72;5022763;28;1259;-78
2023/04/26 07:42:50;;;;;;;;;;;;;;;5.86;86.45;101901.28;5024509;28;1902;-79
2023/04/26 07:45:15;;;;;;;;;;;;;;;5.90;86.44;101899.38;5039160;28;1125;-79
2023/04/26 07:47:40;;;;;;;;;;;;;;;5.93;86.02;101901.84;5041542;28;1185;-78
2023/04/26 07:50:06;;;;;;;;;;;;;;;6.00;86.35;101897.25;5036129;28;1432;-79
2023/04/26 07:52:31;;;;;;;;;;;;;;;6.09;85.88;101907.16;5045953;28;1302;-78
2023/04/26 07:54:56;;;;;;;;;;;;;;;6.13;86.30;101898.38;5040642;28;1167;-78
2023/04/26 07:57:22;;;;;;;;;;;;;;;6.17;85.66;101907.63;5043619;28;1145;-79
2023/04/26 07:59:47;;;;;;;;;;;;;;;6.22;86.25;101913.41;5023004;28;1313;-79
2023/04/26 08:02:12;;;;;;;;;;;;;;;6.22;85.94;101908.25;5022267;28;1921;-79
2023/04/26 08:04:37;;;;;;;;;;;;;;;6.24;84.98;101911.59;5035995;28;1145;-79
2023/04/26 08:07:03;;;;;;;;;;;;;;;6.22;85.28;101913.41;5045812;28;1181;-79
2023/04/26 08:09:28;;;;;;;;;;;;;;;6.24;84.59;101919.31;5042099;28;1187;-79
2023/04/26 08:11:53;;;;;;;;;;;;;;;6.26;84.31;101920.09;5038174;28;1139;-78
2023/04/26 08:14:18;;;;;;;;;;;;;;;6.32;84.37;101927.53;5037652;28;1141;-78
2023/04/26 08:16:44;;;;;;;;;;;;;;;6.37;83.40;101923.03;5043363;28;1109;-78
2023/04/26 08:19:09;;;;;;;;;;;;;;;6.41;84.16;101922.88;5029843;28;1306;-78
2023/04/26 08:21:35;;;;;;;;;;;;;;;6.46;82.71;101926.06;5020821;28;1906;-79
2023/04/26 08:24:00;;;;;;;;;;;;;;;6.48;82.73;101916.50;5037008;28;1150;-79
2023/04/26 08:26:25;;;;;;;;;;;;;;;6.54;83.03;101918.81;5035032;28;1205;-79
2023/04/26 08:28:50;;;;;;;;;;;;;;;6.61;82.26;101925.34;5039225;28;1114;-79
2023/04/26 08:31:15;;;;;;;;;;;;;;;6.72;82.77;101925.69;5043361;28;1053;-79
2023/04/26 08:33:41;;;;;;;;;;;;;;;6.83;82.36;101926.00;5026933;28;1253;-79
2023/04/26 08:36:06;;;;;;;;;;;;;;;6.86;81.52;101925.84;5037316;28;1149;-79
2023/04/26 08:38:32;;;;;;;;;;;;;;;6.86;81.45;101920.69;5020292;28;1225;-80
2023/04/26 08:41:01;;;;;;;;;;;;;;;6.86;80.47;101925.00;5040361;28;1087;-79
2023/04/26 08:43:27;;;;;;;;;;;;;;;6.86;81.18;101918.09;5020514;28;1926;-79
2023/04/26 08:45:52;;;;;;;;;;;;;;;6.91;80.91;101918.72;5039209;28;1187;-80
2023/04/26 08:48:18;;;;;;;;;;;;;;;6.98;80.83;101908.09;5026972;28;1284;-80
2023/04/26 08:50:46;;;;;;;;;;;;;;;7.02;79.55;101919.94;5039548;28;1114;-80
2023/04/26 08:53:18;;;;;;;;;;;;;;;7.06;79.57;101917.13;5040206;28;1237;-79
2023/04/26 08:55:49;;;;;;;;;;;;;;;7.07;78.86;101918.81;5023364;28;1185;-80
2023/04/26 08:58:16;;;;;;;;;;;;;;;7.15;78.67;101921.00;5033569;28;1429;-80
2023/04/26 09:00:44;;;;;;;;;;;;;;;7.28;78.56;101916.88;5032449;28;1297;-79
2023/04/26 09:03:10;;;;;;;;;;;;;;;7.37;77.25;101911.28;5043972;28;1894;-80
2023/04/26 09:05:38;;;;;;;;;;;;;;;7.37;73.10;101911.28;5025832;28;1125;-79
2023/04/26 09:08:04;;;;;;;;;;;;;;;7.42;74.33;101909.28;5027290;28;1276;-79
2023/04/26 09:10:30;;;;;;;;;;;;;;;7.56;75.51;101911.16;5040743;28;1213;-79
2023/04/26 09:12:56;;;;;;;;;;;;;;;7.76;74.74;101912.72;5039344;28;1091;-79
2023/04/26 09:15:22;;;;;;;;;;;;;;;7.88;72.16;101895.75;5041572;28;1450;-79
2023/04/26 09:23:25;;;;;;;;;;;;;;;8.13;70.45;101896.09;5148466;22;7218;-78
2023/04/26 09:25:50;;;;;;;;;;;;;;;8.03;71.74;101899.25;5289593;23;2469;-80
2023/04/26 09:28:20;;;;;;;;;;;;;;;8.06;66.19;101899.09;5017213;28;1037;-80
2023/04/26 09:30:45;;;;;;;;;;;;;;;8.02;69.30;101892.41;5036391;28;1900;-80
2023/04/26 09:33:10;;;;;;;;;;;;;;;8.13;70.41;101890.09;5022275;28;1272;-80
2023/04/26 09:35:36;;;;;;;;;;;;;;;8.20;69.54;101892.28;5020692;28;1435;-80
2023/04/26 09:38:02;;;;;;;;;;;;;;;8.26;68.99;101896.28;5028716;28;1311;-80
2023/04/26 09:40:31;;;;;;;;;;;;;;;8.33;69.42;101895.00;5016336;28;1575;-79
2023/04/26 09:43:05;;;;;;;;;;;;;;;8.43;67.61;101898.78;5017509;28;1955;-80
2023/04/26 09:45:31;;;;;;;;;;;;;;;8.36;63.66;101900.03;5024079;28;1209;-79
2023/04/26 09:48:15;;;;;;;;;;;;;;;8.35;66.44;101900.91;5022694;28;1426;-80
2023/04/26 09:50:41;;;;;;;;;;;;;;;8.50;65.13;101910.44;5021268;28;1372;-80
2023/04/26 09:53:06;;;;;;;;;;;;;;;8.57;66.25;101903.19;5025327;28;1349;-79
2023/04/26 09:55:32;;;;;;;;;;;;;;;8.63;67.03;101909.78;5025963;28;1454;-80
2023/04/26 09:57:59;;;;;;;;;;;;;;;8.67;66.72;101900.94;5024152;28;1398;-80
2023/04/26 10:00:25;;;;;;;;;;;;;;;8.67;66.60;101900.94;5026136;28;1392;-79
2023/04/26 10:02:51;;;;;;;;;;;;;;;8.58;65.42;101896.25;5026141;28;1956;-80
2023/04/26 10:05:17;;;;;;;;;;;;;;;8.50;64.43;101900.13;5014105;28;1427;-81
2023/04/26 10:07:42;;;;;;;;;;;;;;;8.54;64.85;101897.34;5039406;28;1424;-80
2023/04/26 10:10:08;;;;;;;;;;;;;;;8.54;66.08;101894.75;5025729;28;1427;-81
2023/04/26 10:12:33;;;;;;;;;;;;;;;8.62;63.40;101903.75;5025789;28;998;-79
2023/04/26 10:14:58;;;;;;;;;;;;;;;8.39;62.47;101896.47;5017670;28;1482;-80
2023/04/26 10:17:23;;;;;;;;;;;;;;;8.29;63.19;101901.25;5028784;28;1243;-79
2023/04/26 10:19:52;;;;;;;;;;;;;;;8.19;62.49;101900.91;5043119;28;1686;-80
2023/04/26 10:22:24;;;;;;;;;;;;;;;8.16;62.20;101900.25;5026482;28;1959;-80
2023/04/26 10:24:50;;;;;;;;;;;;;;;8.27;61.17;101907.44;5027719;28;1524;-81
2023/04/26 10:27:16;;;;;;;;;;;;;;;8.13;61.25;101910.75;5043208;28;1458;-80
2023/04/26 10:29:53;;;;;;;;;;;;;;;8.03;58.71;101904.41;5028531;28;1764;-80
2023/04/26 10:32:22;;;;;;;;;;;;;;;8.02;61.34;101898.41;5025148;28;1570;-81
2023/04/26 10:35:06;;;;;;;;;;;;;;;8.06;62.47;101899.09;5035542;28;1288;-80
2023/04/26 10:37:31;;;;;;;;;;;;;;;8.22;61.45;101899.94;5023788;28;1296;-80
2023/04/26 10:40:16;;;;;;;;;;;;;;;8.18;61.85;101893.25;5028129;28;1322;-80
2023/04/26 10:42:41;;;;;;;;;;;;;;;8.29;62.18;101900.44;5021201;28;1901;-80
2023/04/26 10:48:21;;;;;;;;;;;;;;;8.45;59.96;101899.53;5027043;28;1467;-81
2023/04/26 10:51:17;;;;;;;;;;;;;;;8.38;58.25;101898.22;5023766;28;1509;-81
2023/04/26 10:53:45;;;;;;;;;;;;;;;8.23;59.20;101901.59;5027607;28;1547;-81
2023/04/26 10:56:11;;;;;;;;;;;;;;;8.16;58.75;101895.09;5017680;28;1218;-83
2023/04/26 10:58:39;;;;;;;;;;;;;;;8.09;56.77;101894.59;5024157;28;1626;-80
2023/04/26 11:01:10;;;;;;;;;;;;;;;8.08;58.83;101897.25;5015892;28;1471;-82
2023/04/26 11:03:36;;;;;;;;;;;;;;;7.99;59.55;101902.00;5023098;28;1902;-83
2023/04/26 11:06:04;;;;;;;;;;;;;;;7.98;60.27;101892.59;5018593;28;1150;-83
2023/04/26 11:08:34;;;;;;;;;;;;;;;7.96;60.09;101889.22;5017179;28;1494;-82
2023/04/26 11:11:02;;;;;;;;;;;;;;;7.97;60.71;101885.75;5027427;28;1326;-80
2023/04/26 11:13:31;;;;;;;;;;;;;;;8.06;59.81;101899.09;5028216;28;1695;-80
2023/04/26 11:16:03;;;;;;;;;;;;;;;7.92;58.87;101887.75;5019932;28;1323;-79
2023/04/26 11:18:29;;;;;;;;;;;;;;;7.95;60.16;101886.75;5025872;28;1298;-79
2023/04/26 11:20:55;;;;;;;;;;;;;;;7.88;60.48;101891.41;5027466;28;1633;-80
2023/04/26 11:23:21;;;;;;;;;;;;;;;7.83;60.47;101882.22;5028573;28;1894;-80
2023/04/26 11:25:47;;;;;;;;;;;;;;;7.84;61.68;101882.16;5027672;28;1357;-79
2023/04/26 11:28:12;;;;;;;;;;;;;;;7.85;61.89;101881.22;5025440;28;1372;-79
2023/04/26 11:30:37;;;;;;;;;;;;;;;7.81;60.18;101884.91;5027967;28;1170;-79
2023/04/26 11:33:03;;;;;;;;;;;;;;;7.82;59.32;101881.41;5026535;28;1156;-79
2023/04/26 11:35:32;;;;;;;;;;;;;;;7.79;60.43;101863.47;5027350;28;1269;-79
2023/04/26 11:37:59;;;;;;;;;;;;;;;7.83;60.17;101875.31;5038882;28;1576;-79
2023/04/26 11:40:26;;;;;;;;;;;;;;;7.83;60.60;101872.72;5039758;28;1723;-79
2023/04/26 11:42:52;;;;;;;;;;;;;;;7.90;61.54;101874.06;5021290;28;1898;-79
2023/04/26 11:45:17;;;;;;;;;;;;;;;7.98;61.55;101866.75;5026739;28;1629;-79
2023/04/26 11:47:43;;;;;;;;;;;;;;;8.03;61.44;101878.56;5021049;28;1083;-79
2023/04/26 11:50:09;;;;;;;;;;;;;;;8.08;61.55;101871.41;5019123;28;1260;-81
2023/04/26 11:52:34;;;;;;;;;;;;;;;8.09;62.15;101873.94;5036837;28;1231;-81
2023/04/26 11:55:02;;;;;;;;;;;;;;;8.13;60.33;101875.41;5021585;28;1373;-81
2023/04/26 11:57:29;;;;;;;;;;;;;;;8.15;61.71;101878.75;5021810;28;1396;-79
2023/04/26 12:00:05;;;;;;;;;;;;;;;8.28;61.44;101878.91;5024109;28;1268;-78
2023/04/26 12:02:30;;;;;;;;;;;;;;;8.20;61.71;101876.75;5019133;28;1890;-79
2023/04/26 12:04:58;;;;;;;;;;;;;;;8.28;60.81;101883.25;5025331;28;1556;-79
2023/04/26 12:07:24;;;;;;;;;;;;;;;8.20;61.90;101888.81;5024200;28;1076;-79
2023/04/26 12:09:49;;;;;;;;;;;;;;;8.30;60.77;101892.56;5026742;28;1414;-78
2023/04/26 12:12:15;;;;;;;;;;;;;;;8.29;58.76;101893.50;5027560;28;1383;-79
2023/04/26 12:14:40;;;;;;;;;;;;;;;8.22;59.84;101885.25;5022554;28;1362;-79
2023/04/26 12:17:06;;;;;;;;;;;;;;;8.26;58.81;101885.94;5044077;28;1244;-79
2023/04/26 12:19:38;;;;;;;;;;;;;;;8.24;59.88;101874.81;5024378;28;1428;-80
2023/04/26 12:22:04;;;;;;;;;;;;;;;8.30;60.98;101882.25;5024944;28;1894;-79
2023/04/26 12:24:34;;;;;;;;;;;;;;;8.46;61.86;101877.91;5022019;28;1330;-82
2023/04/26 12:27:01;;;;;;;;;;;;;;;8.57;58.79;101873.91;5026061;28;1252;-81
2023/04/26 12:29:29;;;;;;;;;;;;;;;8.58;60.61;101875.56;5041452;28;1335;-82
2023/04/26 12:31:54;;;;;;;;;;;;;;;8.66;60.50;101881.13;5020614;28;1316;-81
2023/04/26 12:34:20;;;;;;;;;;;;;;;8.71;60.19;101881.69;5016316;28;1324;-81
2023/04/26 12:36:45;;;;;;;;;;;;;;;8.82;60.23;101879.34;5026048;28;1332;-81
2023/04/26 12:39:12;;;;;;;;;;;;;;;8.90;60.43;101881.50;5017899;28;1138;-81
2023/04/26 12:41:37;;;;;;;;;;;;;;;8.97;60.74;101882.81;5023050;28;1275;-79
2023/04/26 12:44:02;;;;;;;;;;;;;;;8.98;58.60;101882.72;5024885;28;1898;-78
2023/04/26 12:46:27;;;;;;;;;;;;;;;9.06;60.65;101895.22;5025810;28;1165;-78
2023/04/26 12:48:52;;;;;;;;;;;;;;;9.12;60.22;101891.44;5041285;28;1263;-78
2023/04/26 12:51:18;;;;;;;;;;;;;;;9.19;60.17;101887.56;5026652;28;1298;-78
2023/04/26 12:53:43;;;;;;;;;;;;;;;9.25;59.85;101882.03;5023785;28;1450;-78
2023/04/26 12:56:08;;;;;;;;;;;;;;;9.29;58.83;101878.34;5017502;28;1272;-78
2023/04/26 12:58:33;;;;;;;;;;;;;;;9.41;57.38;101885.38;5025749;28;1414;-78
2023/04/26 13:00:58;;;;;;;;;;;;;;;9.43;56.42;101880.94;5044569;28;1614;-78